createdAt,value
2022-12-28T00:00:45.658Z,10.16
2022-12-28T00:02:03.080Z,10.70
2022-12-28T00:03:03.630Z,10.67
2022-12-28T00:04:05.682Z,10.59
2022-12-28T00:05:06.137Z,11.19
2022-12-28T00:06:06.839Z,11.04
2022-12-28T00:07:07.075Z,10.60
2022-12-28T00:08:07.355Z,10.86
2022-12-28T00:09:10.229Z,10.36
2022-12-28T00:10:10.856Z,10.34
2022-12-28T00:11:20.469Z,10.93
2022-12-28T00:12:29.432Z,11.04
2022-12-28T00:13:30.882Z,10.88
2022-12-28T00:14:31.455Z,10.68
2022-12-28T00:15:31.868Z,10.53
2022-12-28T00:16:33.818Z,10.39
2022-12-28T00:17:34.521Z,10.02
2022-12-28T00:18:35.308Z,10.13
2022-12-28T00:19:35.597Z,10.96
2022-12-28T00:20:36.045Z,10.34
2022-12-28T00:21:36.623Z,11.10
2022-12-28T00:22:37.059Z,11.11
2022-12-28T00:23:37.542Z,10.87
2022-12-28T00:24:37.922Z,10.55
2022-12-28T00:25:38.162Z,10.50
2022-12-28T00:26:38.495Z,10.58
2022-12-28T00:27:39.149Z,10.43
2022-12-28T00:28:40.500Z,10.75
2022-12-28T00:29:40.757Z,11.11
2022-12-28T00:30:41.120Z,10.71
2022-12-28T00:31:41.915Z,10.07
2022-12-28T00:32:42.209Z,10.94
2022-12-28T00:33:42.651Z,10.60
2022-12-28T00:34:46.314Z,12.09
2022-12-28T00:35:52.269Z,10.99
2022-12-28T00:37:11.290Z,10.91
2022-12-28T00:38:12.902Z,10.67
2022-12-28T00:39:13.632Z,10.85
2022-12-28T00:40:18.896Z,11.36
2022-12-28T00:41:22.464Z,11.43
2022-12-28T00:42:22.887Z,11.06
2022-12-28T00:43:23.247Z,10.64
2022-12-28T00:44:25.160Z,10.60
2022-12-28T00:45:25.687Z,11.37
2022-12-28T00:46:26.149Z,11.52
2022-12-28T00:47:26.706Z,11.32
2022-12-28T00:48:27.656Z,11.07
2022-12-28T00:49:28.304Z,11.38
2022-12-28T00:50:28.625Z,10.95
2022-12-28T00:51:29.034Z,11.56
2022-12-28T00:52:29.286Z,11.40
2022-12-28T00:53:29.711Z,11.68
2022-12-28T00:54:30.235Z,11.81
2022-12-28T00:55:32.563Z,11.06
2022-12-28T00:56:32.832Z,11.90
2022-12-28T00:57:33.206Z,11.91
2022-12-28T00:58:33.700Z,12.23
2022-12-28T00:59:34.190Z,11.49
2022-12-28T01:00:36.027Z,12.56
2022-12-28T01:01:38.767Z,12.07
2022-12-28T01:02:39.081Z,11.65
2022-12-28T01:03:39.645Z,12.03
2022-12-28T01:04:39.895Z,12.41
2022-12-28T01:05:40.649Z,12.29
2022-12-28T01:06:42.156Z,12.19
2022-12-28T01:07:42.697Z,12.14
2022-12-28T01:08:44.042Z,13.16
2022-12-28T01:09:44.796Z,13.35
2022-12-28T01:10:45.647Z,12.78
2022-12-28T01:11:46.028Z,12.43
2022-12-28T01:12:46.357Z,13.00
2022-12-28T01:13:47.712Z,13.47
2022-12-28T01:14:48.608Z,14.31
2022-12-28T01:15:49.050Z,13.94
2022-12-28T01:16:49.716Z,13.54
2022-12-28T01:17:50.568Z,13.23
2022-12-28T01:18:52.370Z,14.43
2022-12-28T01:19:55.316Z,14.07
2022-12-28T01:20:55.604Z,13.89
2022-12-28T01:21:57.314Z,13.85
2022-12-28T01:22:57.567Z,13.34
2022-12-28T01:23:59.389Z,13.45
2022-12-28T01:24:59.681Z,13.08
2022-12-28T01:26:03.386Z,14.45
2022-12-28T01:27:03.793Z,14.05
2022-12-28T01:28:04.157Z,13.15
2022-12-28T01:29:04.484Z,13.82
2022-12-28T01:30:06.010Z,14.16
2022-12-28T01:31:08.067Z,14.09
2022-12-28T01:32:08.563Z,14.22
2022-12-28T01:33:08.953Z,14.37
2022-12-28T01:34:09.398Z,13.77
2022-12-28T01:35:09.750Z,14.38
2022-12-28T01:36:14.745Z,14.75
2022-12-28T01:37:15.166Z,14.09
2022-12-28T01:38:15.884Z,14.56
2022-12-28T01:39:16.411Z,14.25
2022-12-28T01:40:16.691Z,13.98
2022-12-28T01:41:18.244Z,14.28
2022-12-28T01:42:19.655Z,14.53
2022-12-28T01:43:29.723Z,14.72
2022-12-28T01:44:40.122Z,14.21
2022-12-28T01:45:42.722Z,14.88
2022-12-28T01:46:49.508Z,14.10
2022-12-28T01:47:54.426Z,14.78
2022-12-28T01:48:59.770Z,14.66
2022-12-28T01:50:08.752Z,15.27
2022-12-28T01:51:09.157Z,15.46
2022-12-28T01:52:15.947Z,15.68
2022-12-28T01:53:18.734Z,15.44
2022-12-28T01:54:23.733Z,15.23
2022-12-28T01:55:28.567Z,15.95
2022-12-28T01:56:29.333Z,16.25
2022-12-28T01:57:33.860Z,15.74
2022-12-28T01:58:35.109Z,15.71
2022-12-28T01:59:39.792Z,15.17
2022-12-28T02:00:40.597Z,14.95
2022-12-28T02:01:41.449Z,15.40
2022-12-28T02:02:45.621Z,15.96
2022-12-28T02:03:46.264Z,14.82
2022-12-28T02:04:47.641Z,14.53
2022-12-28T02:05:50.492Z,15.42
2022-12-28T02:06:51.747Z,14.67
2022-12-28T02:08:12.569Z,14.90
2022-12-28T02:09:17.230Z,15.82
2022-12-28T02:10:42.619Z,15.89
2022-12-28T02:11:40.407Z,16.44
2022-12-28T02:12:41.472Z,16.02
2022-12-28T02:13:43.788Z,16.39
2022-12-28T02:14:46.012Z,16.01
2022-12-28T02:15:47.921Z,15.28
2022-12-28T02:16:49.523Z,15.19
2022-12-28T02:17:50.350Z,16.26
2022-12-28T02:18:51.428Z,15.57
2022-12-28T02:19:52.284Z,15.87
2022-12-28T02:21:11.150Z,16.00
2022-12-28T02:22:30.416Z,15.85
2022-12-28T02:23:30.848Z,16.54
2022-12-28T02:24:31.390Z,16.72
2022-12-28T02:25:44.165Z,16.43
2022-12-28T02:26:50.587Z,16.58
2022-12-28T02:28:10.893Z,16.09
2022-12-28T02:29:19.339Z,17.99
2022-12-28T02:30:20.182Z,16.90
2022-12-28T02:31:41.028Z,16.44
2022-12-28T02:33:04.113Z,16.46
2022-12-28T02:34:20.336Z,17.06
2022-12-28T02:35:44.903Z,17.22
2022-12-28T02:36:50.457Z,16.50
2022-12-28T02:37:53.207Z,16.06
2022-12-28T02:38:58.507Z,16.17
2022-12-28T02:40:04.278Z,16.51
2022-12-28T02:41:08.774Z,16.18
2022-12-28T02:42:09.895Z,16.95
2022-12-28T02:43:11.908Z,17.55
2022-12-28T02:44:32.712Z,17.55
2022-12-28T02:45:55.002Z,15.91
2022-12-28T02:47:13.755Z,15.23
2022-12-28T02:48:34.922Z,15.91
2022-12-28T02:49:54.212Z,15.40
2022-12-28T02:51:04.796Z,16.42
2022-12-28T02:52:19.872Z,15.69
2022-12-28T02:53:33.770Z,14.88
2022-12-28T02:55:10.038Z,16.27
2022-12-28T02:56:23.512Z,14.78
2022-12-28T02:57:43.257Z,14.84
2022-12-28T02:59:02.214Z,15.04
2022-12-28T03:00:02.747Z,15.19
2022-12-28T03:01:03.319Z,14.36
2022-12-28T03:02:33.718Z,14.94
2022-12-28T03:03:34.495Z,14.01
2022-12-28T03:04:58.008Z,14.59
2022-12-28T03:06:29.992Z,14.70
2022-12-28T03:08:10.419Z,14.32
2022-12-28T03:09:26.215Z,14.50
2022-12-28T03:10:47.684Z,13.91
2022-12-28T03:11:53.152Z,13.77
2022-12-28T03:13:00.918Z,13.92
2022-12-28T03:14:08.310Z,13.45
2022-12-28T03:15:29.308Z,13.73
2022-12-28T03:17:18.691Z,13.21
2022-12-28T03:18:40.159Z,12.99
2022-12-28T03:20:11.116Z,13.19
2022-12-28T03:21:31.277Z,13.81
2022-12-28T03:22:53.609Z,12.98
2022-12-28T03:24:14.819Z,13.24
2022-12-28T03:25:38.488Z,12.77
2022-12-28T03:27:04.220Z,13.03
2022-12-28T03:28:29.275Z,13.05
2022-12-28T03:29:53.761Z,12.50
2022-12-28T03:31:07.107Z,12.40
2022-12-28T03:32:21.567Z,13.20
2022-12-28T03:33:30.097Z,12.54
2022-12-28T03:34:44.497Z,13.16
2022-12-28T03:36:08.604Z,12.80
2022-12-28T03:37:50.846Z,12.09
2022-12-28T03:40:52.897Z,12.50
2022-12-28T03:42:34.661Z,11.82
2022-12-28T03:44:16.076Z,11.45
2022-12-28T03:45:46.457Z,11.86
2022-12-28T03:47:27.338Z,12.21
2022-12-28T03:48:44.483Z,12.39
2022-12-28T03:50:01.601Z,11.93
2022-12-28T03:51:07.258Z,11.69
2022-12-28T03:52:13.847Z,11.05
2022-12-28T03:53:31.296Z,11.52
2022-12-28T03:54:37.183Z,11.39
2022-12-28T03:55:45.301Z,12.05
2022-12-28T03:57:03.188Z,10.86
2022-12-28T03:58:43.620Z,11.29
2022-12-28T04:00:04.276Z,11.59
2022-12-28T04:01:16.417Z,11.56
2022-12-28T04:02:19.302Z,11.50
2022-12-28T04:03:20.435Z,11.61
2022-12-28T04:04:20.857Z,10.58
2022-12-28T04:05:22.395Z,11.05
2022-12-28T04:06:22.879Z,11.26
2022-12-28T04:07:24.638Z,11.42
2022-12-28T04:08:25.413Z,11.23
2022-12-28T04:09:26.185Z,10.82
2022-12-28T04:10:26.917Z,11.00
2022-12-28T04:11:27.423Z,11.44
2022-12-28T04:12:28.357Z,11.33
2022-12-28T04:13:42.046Z,10.19
2022-12-28T04:14:45.490Z,10.63
2022-12-28T04:16:00.024Z,10.57
2022-12-28T04:17:01.793Z,11.11
2022-12-28T04:18:02.074Z,10.80
2022-12-28T04:19:02.644Z,10.69
2022-12-28T04:20:03.839Z,11.48
2022-12-28T04:21:04.660Z,11.14
2022-12-28T04:22:05.048Z,11.23
2022-12-28T04:23:07.625Z,11.23
2022-12-28T04:24:07.945Z,12.10
2022-12-28T04:25:09.360Z,11.06
2022-12-28T04:26:11.096Z,10.96
2022-12-28T04:27:11.801Z,10.96
2022-12-28T04:28:12.112Z,11.10
2022-12-28T04:29:53.420Z,11.05
2022-12-28T04:30:54.353Z,10.45
2022-12-28T04:31:55.546Z,11.16
2022-12-28T04:32:56.027Z,10.98
2022-12-28T04:33:57.752Z,11.81
2022-12-28T04:34:58.232Z,11.98
2022-12-28T04:36:12.126Z,11.07
2022-12-28T04:37:14.763Z,11.11
2022-12-28T04:38:16.329Z,11.64
2022-12-28T04:39:16.643Z,11.57
2022-12-28T04:40:16.944Z,11.40
2022-12-28T04:41:17.334Z,11.62
2022-12-28T04:42:17.812Z,11.39
2022-12-28T04:43:18.060Z,11.94
2022-12-28T04:44:18.323Z,11.42
2022-12-28T04:45:22.233Z,11.43
2022-12-28T04:46:24.210Z,11.44
2022-12-28T04:47:24.567Z,12.05
2022-12-28T04:48:25.506Z,10.73
2022-12-28T04:49:25.740Z,11.19
2022-12-28T04:50:27.144Z,10.62
2022-12-28T04:51:28.978Z,10.43
2022-12-28T04:52:29.304Z,10.36
2022-12-28T04:53:29.492Z,11.36
2022-12-28T04:54:29.778Z,10.21
2022-12-28T04:55:32.037Z,9.86
2022-12-28T04:56:33.909Z,10.22
2022-12-28T04:57:34.937Z,10.21
2022-12-28T04:58:36.583Z,10.36
2022-12-28T04:59:36.841Z,10.68
2022-12-28T05:00:37.140Z,10.45
2022-12-28T05:01:37.748Z,10.12
2022-12-28T05:02:38.268Z,10.88
2022-12-28T05:03:40.382Z,13.63
2022-12-28T05:04:40.673Z,11.63
2022-12-28T05:05:41.020Z,10.19
2022-12-28T05:06:41.328Z,10.50
2022-12-28T05:07:41.638Z,10.59
2022-12-28T05:08:42.969Z,10.32
2022-12-28T05:09:43.343Z,10.63
2022-12-28T05:10:43.620Z,9.38
2022-12-28T05:11:43.886Z,9.54
2022-12-28T05:12:44.301Z,9.96
2022-12-28T05:13:45.017Z,10.55
2022-12-28T05:14:45.652Z,10.55
2022-12-28T05:15:45.911Z,10.42
2022-12-28T05:16:49.609Z,11.50
2022-12-28T05:17:50.167Z,10.59
2022-12-28T05:18:50.532Z,10.60
2022-12-28T05:19:50.821Z,10.08
2022-12-28T05:20:57.544Z,11.81
2022-12-28T05:21:57.893Z,10.83
2022-12-28T05:22:58.348Z,10.75
2022-12-28T05:23:59.061Z,10.66
2022-12-28T05:24:59.366Z,10.74
2022-12-28T05:25:59.727Z,10.90
2022-12-28T05:27:00.942Z,10.19
2022-12-28T05:28:01.388Z,10.09
2022-12-28T05:29:02.554Z,9.72
2022-12-28T05:30:03.212Z,9.30
2022-12-28T05:31:09.577Z,9.07
2022-12-28T05:32:09.834Z,9.42
2022-12-28T05:33:10.268Z,9.18
2022-12-28T05:34:10.535Z,9.07
2022-12-28T05:35:10.823Z,8.98
2022-12-28T05:36:15.972Z,9.69
2022-12-28T05:37:21.787Z,9.92
2022-12-28T05:38:22.648Z,9.28
2022-12-28T05:39:23.527Z,9.10
2022-12-28T05:40:23.879Z,8.86
2022-12-28T05:41:27.027Z,8.41
2022-12-28T05:42:27.580Z,9.17
2022-12-28T05:43:30.135Z,9.07
2022-12-28T05:44:30.527Z,8.58
2022-12-28T05:45:30.898Z,8.79
2022-12-28T05:46:32.681Z,8.98
2022-12-28T05:47:33.320Z,9.00
2022-12-28T05:48:35.046Z,9.15
2022-12-28T05:49:35.875Z,9.29
2022-12-28T05:50:36.191Z,9.63
2022-12-28T05:51:37.995Z,9.97
2022-12-28T05:52:40.141Z,9.30
2022-12-28T05:53:41.657Z,8.75
2022-12-28T05:54:41.847Z,8.89
2022-12-28T05:55:42.887Z,8.83
2022-12-28T05:56:43.134Z,8.96
2022-12-28T05:57:43.406Z,8.97
2022-12-28T05:58:45.014Z,9.27
2022-12-28T05:59:45.404Z,9.52
2022-12-28T06:00:45.710Z,8.93
2022-12-28T06:01:46.171Z,8.93
2022-12-28T06:02:46.640Z,8.76
2022-12-28T06:03:48.320Z,9.99
2022-12-28T06:04:48.548Z,10.28
2022-12-28T06:05:49.835Z,9.29
2022-12-28T06:06:50.161Z,9.08
2022-12-28T06:07:51.459Z,9.20
2022-12-28T06:08:53.014Z,9.76
2022-12-28T06:09:53.243Z,9.74
2022-12-28T06:10:53.560Z,9.31
2022-12-28T06:11:53.888Z,8.74
2022-12-28T06:12:54.272Z,8.97
2022-12-28T06:13:56.826Z,9.76
2022-12-28T06:14:57.063Z,10.15
2022-12-28T06:15:57.607Z,9.59
2022-12-28T06:16:57.996Z,9.37
2022-12-28T06:17:58.385Z,9.25
2022-12-28T06:18:59.270Z,8.90
2022-12-28T06:19:59.612Z,9.54
2022-12-28T06:21:06.045Z,9.79
2022-12-28T06:22:06.507Z,10.45
2022-12-28T06:23:06.846Z,10.58
2022-12-28T06:24:08.592Z,10.33
2022-12-28T06:25:09.263Z,10.59
2022-12-28T06:26:11.240Z,10.03
2022-12-28T06:27:11.615Z,10.00
2022-12-28T06:28:11.876Z,9.41
2022-12-28T06:29:12.257Z,9.15
2022-12-28T06:30:12.807Z,9.47
2022-12-28T06:31:23.955Z,9.93
2022-12-28T06:32:24.311Z,9.75
2022-12-28T06:33:25.514Z,9.62
2022-12-28T06:34:27.273Z,9.39
2022-12-28T06:35:27.690Z,9.43
2022-12-28T06:36:28.101Z,9.26
2022-12-28T06:37:28.826Z,9.49
2022-12-28T06:38:32.277Z,10.06
2022-12-28T06:39:32.774Z,10.07
2022-12-28T06:41:02.539Z,11.61
2022-12-28T06:41:53.707Z,9.87
2022-12-28T06:42:54.528Z,10.23
2022-12-28T06:43:55.447Z,9.71
2022-12-28T06:44:56.374Z,10.03
2022-12-28T06:45:57.088Z,9.53
2022-12-28T06:46:57.555Z,9.14
2022-12-28T06:47:57.844Z,9.26
2022-12-28T06:48:58.402Z,9.45
2022-12-28T06:49:58.978Z,9.44
2022-12-28T06:51:01.571Z,9.81
2022-12-28T06:52:02.191Z,9.39
2022-12-28T06:53:02.442Z,9.83
2022-12-28T06:54:02.898Z,9.88
2022-12-28T06:55:03.424Z,9.13
2022-12-28T06:56:05.877Z,9.38
2022-12-28T06:57:06.184Z,10.24
2022-12-28T06:58:06.522Z,10.00
2022-12-28T06:59:07.352Z,10.00
2022-12-28T07:00:08.211Z,10.89
2022-12-28T07:01:10.151Z,11.35
2022-12-28T07:02:10.990Z,13.06
2022-12-28T07:03:11.334Z,10.93
2022-12-28T07:04:12.359Z,12.02
2022-12-28T07:05:12.938Z,11.36
2022-12-28T07:06:15.759Z,11.67
2022-12-28T07:07:16.019Z,11.08
2022-12-28T07:08:17.416Z,11.47
2022-12-28T07:09:17.858Z,19.14
2022-12-28T07:10:18.130Z,27.86
2022-12-28T07:11:20.468Z,24.93
2022-12-28T07:12:20.877Z,18.92
2022-12-28T07:13:27.831Z,19.02
2022-12-28T07:14:28.757Z,21.58
2022-12-28T07:15:29.241Z,24.80
2022-12-28T07:17:32.553Z,17.60
2022-12-28T07:18:33.604Z,15.98
2022-12-28T07:19:34.083Z,14.78
2022-12-28T07:20:40.196Z,15.83
2022-12-28T07:21:41.259Z,15.56
2022-12-28T07:22:41.562Z,14.56
2022-12-28T07:23:42.029Z,14.33
2022-12-28T07:24:42.528Z,15.08
2022-12-28T07:25:43.101Z,13.99
2022-12-28T07:26:43.348Z,15.69
2022-12-28T07:27:43.651Z,13.82
2022-12-28T07:28:45.335Z,14.62
2022-12-28T07:29:45.548Z,13.41
2022-12-28T07:30:45.922Z,15.98
2022-12-28T07:31:46.210Z,17.24
2022-12-28T07:32:46.555Z,16.54
2022-12-28T07:33:48.107Z,16.53
2022-12-28T07:34:48.367Z,14.98
2022-12-28T07:35:48.589Z,15.93
2022-12-28T07:36:49.049Z,14.92
2022-12-28T07:37:49.852Z,15.37
2022-12-28T07:38:50.556Z,13.96
2022-12-28T07:39:50.847Z,15.97
2022-12-28T07:40:51.155Z,18.38
2022-12-28T07:41:51.546Z,20.45
2022-12-28T07:42:55.071Z,16.82
2022-12-28T07:43:55.773Z,14.68
2022-12-28T07:44:56.133Z,13.83
2022-12-28T07:46:07.782Z,14.15
2022-12-28T07:47:08.248Z,15.62
2022-12-28T07:48:08.474Z,15.73
2022-12-28T07:49:08.674Z,14.18
2022-12-28T07:50:09.276Z,14.26
2022-12-28T07:51:12.632Z,13.97
2022-12-28T07:52:13.035Z,14.21
2022-12-28T07:53:17.421Z,13.66
2022-12-28T07:54:22.355Z,12.94
2022-12-28T07:55:24.172Z,13.81
2022-12-28T07:56:26.041Z,12.37
2022-12-28T07:57:26.982Z,12.80
2022-12-28T07:58:27.687Z,12.43
2022-12-28T07:59:31.119Z,12.58
2022-12-28T08:00:31.945Z,12.74
2022-12-28T08:01:34.489Z,14.48
2022-12-28T08:02:35.157Z,15.06
2022-12-28T08:03:36.238Z,16.67
2022-12-28T08:04:36.829Z,19.62
2022-12-28T08:05:38.226Z,20.31
2022-12-28T08:06:40.765Z,16.23
2022-12-28T08:07:41.128Z,17.79
2022-12-28T08:08:44.023Z,17.60
2022-12-28T08:09:44.277Z,26.48
2022-12-28T08:10:44.524Z,22.95
2022-12-28T08:11:48.059Z,16.90
2022-12-28T08:12:49.253Z,14.19
2022-12-28T08:13:50.944Z,14.97
2022-12-28T08:14:51.211Z,15.93
2022-12-28T08:15:55.058Z,15.79
2022-12-28T08:16:55.547Z,15.22
2022-12-28T08:17:56.110Z,14.53
2022-12-28T08:18:56.740Z,13.01
2022-12-28T08:19:57.311Z,13.95
2022-12-28T08:21:05.833Z,14.24
2022-12-28T08:22:06.331Z,13.95
2022-12-28T08:23:06.598Z,22.59
2022-12-28T08:24:09.352Z,22.34
2022-12-28T08:25:09.744Z,16.16
2022-12-28T08:26:18.346Z,14.12
2022-12-28T08:27:18.806Z,13.66
2022-12-28T08:28:19.247Z,12.84
2022-12-28T08:29:21.306Z,12.42
2022-12-28T08:30:21.664Z,14.42
2022-12-28T08:31:42.160Z,15.49
2022-12-28T08:32:42.407Z,15.66
2022-12-28T08:33:43.506Z,14.73
2022-12-28T08:34:43.808Z,14.00
2022-12-28T08:35:44.124Z,13.10
2022-12-28T08:36:44.658Z,14.65
2022-12-28T08:37:44.881Z,19.35
2022-12-28T08:38:46.646Z,29.37
2022-12-28T08:39:46.943Z,37.41
2022-12-28T08:40:57.368Z,35.68
2022-12-28T08:41:58.281Z,27.83
2022-12-28T08:42:58.996Z,21.27
2022-12-28T08:43:59.824Z,17.32
2022-12-28T08:45:00.183Z,15.51
2022-12-28T08:46:02.439Z,13.84
2022-12-28T08:47:02.984Z,14.42
2022-12-28T08:48:03.638Z,13.69
2022-12-28T08:49:05.202Z,13.14
2022-12-28T08:50:06.230Z,14.25
2022-12-28T08:51:08.660Z,14.67
2022-12-28T08:52:09.407Z,16.77
2022-12-28T08:53:09.728Z,27.62
2022-12-28T08:54:13.145Z,59.91
2022-12-28T08:55:13.674Z,46.51
2022-12-28T08:56:29.011Z,24.76
2022-12-28T08:57:29.337Z,15.67
2022-12-28T08:58:29.539Z,15.10
2022-12-28T08:59:29.827Z,13.76
2022-12-28T09:00:30.177Z,14.13
2022-12-28T09:01:42.590Z,14.32
2022-12-28T09:02:44.776Z,13.63
2022-12-28T09:03:47.071Z,13.43
2022-12-28T09:04:47.410Z,13.86
2022-12-28T09:05:54.292Z,13.11
2022-12-28T09:06:54.992Z,20.25
2022-12-28T09:07:59.548Z,51.76
2022-12-28T09:09:06.141Z,49.29
2022-12-28T09:10:07.741Z,36.33
2022-12-28T09:11:10.887Z,30.13
2022-12-28T09:12:11.246Z,20.71
2022-12-28T09:13:11.499Z,14.99
2022-12-28T09:14:20.390Z,14.31
2022-12-28T09:15:23.721Z,13.59
2022-12-28T09:16:26.149Z,13.67
2022-12-28T09:17:26.680Z,13.54
2022-12-28T09:18:27.078Z,13.16
2022-12-28T09:19:27.483Z,12.54
2022-12-28T09:20:28.033Z,13.73
2022-12-28T09:21:31.051Z,14.85
2022-12-28T09:22:31.324Z,23.08
2022-12-28T09:23:31.595Z,31.05
2022-12-28T09:24:32.002Z,22.35
2022-12-28T09:25:33.556Z,20.77
2022-12-28T09:26:36.016Z,20.76
2022-12-28T09:27:36.711Z,21.77
2022-12-28T09:28:37.805Z,16.49
2022-12-28T09:29:38.051Z,16.04
2022-12-28T09:30:38.411Z,16.20
2022-12-28T09:31:40.317Z,14.93
2022-12-28T09:32:40.736Z,13.88
2022-12-28T09:35:20.228Z,12.99
2022-12-28T09:36:20.566Z,13.12
2022-12-28T09:37:20.950Z,12.91
2022-12-28T09:38:21.352Z,13.52
2022-12-28T09:39:23.861Z,15.88
2022-12-28T09:40:24.349Z,17.78
2022-12-28T09:41:27.630Z,17.53
2022-12-28T09:42:30.161Z,22.58
2022-12-28T09:43:31.479Z,26.69
2022-12-28T09:44:34.637Z,29.10
2022-12-28T09:45:35.720Z,20.24
2022-12-28T09:46:43.907Z,15.87
2022-12-28T09:47:55.381Z,12.61
2022-12-28T09:48:58.262Z,11.99
2022-12-28T09:50:01.397Z,11.85
2022-12-28T09:51:02.186Z,11.51
2022-12-28T09:52:14.643Z,12.01
2022-12-28T09:53:28.727Z,11.12
2022-12-28T09:54:29.564Z,12.20
2022-12-28T09:55:32.137Z,12.20
2022-12-28T09:56:37.821Z,11.64
2022-12-28T09:57:41.691Z,13.05
2022-12-28T09:58:47.749Z,15.82
2022-12-28T09:59:48.519Z,15.85
2022-12-28T10:00:55.191Z,19.05
2022-12-28T10:01:59.967Z,17.40
2022-12-28T10:03:03.473Z,13.88
2022-12-28T10:04:04.138Z,11.97
2022-12-28T10:05:04.987Z,10.70
2022-12-28T10:06:13.594Z,11.93
2022-12-28T10:07:14.033Z,11.77
2022-12-28T10:08:16.677Z,12.10
2022-12-28T10:09:24.201Z,10.88
2022-12-28T10:10:25.587Z,10.89
2022-12-28T10:11:40.371Z,10.95
2022-12-28T10:12:42.938Z,10.65
2022-12-28T10:13:59.455Z,10.02
2022-12-28T10:15:00.650Z,9.93
2022-12-28T10:16:03.879Z,10.50
2022-12-28T10:17:06.650Z,11.72
2022-12-28T10:18:07.105Z,11.01
2022-12-28T10:19:07.676Z,9.89
2022-12-28T10:20:14.660Z,9.58
2022-12-28T10:21:20.242Z,9.00
2022-12-28T10:22:22.529Z,8.70
2022-12-28T10:23:25.543Z,9.03
2022-12-28T10:24:31.864Z,8.51
2022-12-28T10:25:33.220Z,8.53
2022-12-28T10:26:34.744Z,8.44
2022-12-28T10:27:34.943Z,8.36
2022-12-28T10:28:49.000Z,7.92
2022-12-28T10:29:53.430Z,8.87
2022-12-28T10:31:08.134Z,8.43
2022-12-28T10:32:11.350Z,10.09
2022-12-28T10:33:16.377Z,11.72
2022-12-28T10:34:21.990Z,10.83
2022-12-28T10:35:41.143Z,15.03
2022-12-28T10:36:42.129Z,12.06
2022-12-28T10:37:44.045Z,11.35
2022-12-28T10:38:49.987Z,10.76
2022-12-28T10:40:03.137Z,9.83
2022-12-28T10:41:09.763Z,9.38
2022-12-28T10:42:20.515Z,9.34
2022-12-28T10:43:21.081Z,10.10
2022-12-28T10:44:41.107Z,10.25
2022-12-28T10:45:47.959Z,9.76
2022-12-28T10:46:58.183Z,11.06
2022-12-28T10:47:58.613Z,10.76
2022-12-28T10:49:02.627Z,10.04
2022-12-28T10:50:36.507Z,9.67
2022-12-28T10:51:26.131Z,11.07
2022-12-28T10:52:27.094Z,11.01
2022-12-28T10:53:31.448Z,10.76
2022-12-28T10:54:33.873Z,11.45
2022-12-28T10:55:34.167Z,9.83
2022-12-28T10:56:47.623Z,8.96
2022-12-28T10:58:27.055Z,9.33
2022-12-28T10:59:11.809Z,9.16
2022-12-28T11:00:20.142Z,10.36
2022-12-28T11:01:26.145Z,10.02
2022-12-28T11:02:28.560Z,10.10
2022-12-28T11:03:31.138Z,9.08
2022-12-28T11:04:31.433Z,10.14
2022-12-28T11:05:31.715Z,9.62
2022-12-28T11:06:51.063Z,9.04
2022-12-28T11:08:03.957Z,9.32
2022-12-28T11:09:04.255Z,10.27
2022-12-28T11:10:23.033Z,9.16
2022-12-28T11:11:23.276Z,9.44
2022-12-28T11:12:25.916Z,8.99
2022-12-28T11:13:26.642Z,9.41
2022-12-28T11:14:34.262Z,9.92
2022-12-28T11:15:35.000Z,11.09
2022-12-28T11:16:36.991Z,10.68
2022-12-28T11:17:37.383Z,10.39
2022-12-28T11:18:38.152Z,9.49
2022-12-28T11:19:38.698Z,10.12
2022-12-28T11:20:42.892Z,9.21
2022-12-28T11:21:43.916Z,9.59
2022-12-28T11:22:44.680Z,9.03
2022-12-28T11:23:46.146Z,9.62
2022-12-28T11:24:46.648Z,10.62
2022-12-28T11:25:47.227Z,10.91
2022-12-28T11:26:49.610Z,9.77
2022-12-28T11:27:50.161Z,9.86
2022-12-28T11:28:52.254Z,8.87
2022-12-28T11:29:54.651Z,9.59
2022-12-28T11:30:56.619Z,9.65
2022-12-28T11:32:23.396Z,9.24
2022-12-28T11:33:42.491Z,10.46
2022-12-28T11:34:43.975Z,9.94
2022-12-28T11:35:44.808Z,9.99
2022-12-28T11:36:46.271Z,11.04
2022-12-28T11:37:51.070Z,9.16
2022-12-28T11:38:52.949Z,9.00
2022-12-28T11:39:53.322Z,9.43
2022-12-28T11:40:54.455Z,11.05
2022-12-28T11:43:39.229Z,9.47
2022-12-28T11:44:39.502Z,9.27
2022-12-28T11:45:53.986Z,9.76
2022-12-28T11:47:13.359Z,8.56
2022-12-28T11:48:32.717Z,8.94
2022-12-28T11:49:34.872Z,8.87
2022-12-28T11:50:38.531Z,9.10
2022-12-28T11:51:38.936Z,9.01
2022-12-28T11:52:47.261Z,9.33
2022-12-28T11:53:49.813Z,9.75
2022-12-28T11:54:52.488Z,9.41
2022-12-28T11:56:07.038Z,9.98
2022-12-28T11:57:07.454Z,8.97
2022-12-28T11:58:33.190Z,8.75
2022-12-28T11:59:34.988Z,8.86
2022-12-28T12:00:38.499Z,9.11
2022-12-28T12:01:40.388Z,8.86
2022-12-28T12:02:40.915Z,8.50
2022-12-28T12:03:56.650Z,8.48
2022-12-28T12:05:05.110Z,9.10
2022-12-28T12:06:08.441Z,8.97
2022-12-28T12:07:16.839Z,8.45
2022-12-28T12:08:17.459Z,8.15
2022-12-28T12:09:26.370Z,8.52
2022-12-28T12:10:30.719Z,8.16
2022-12-28T12:11:32.736Z,8.27
2022-12-28T12:12:49.133Z,9.09
2022-12-28T12:13:55.388Z,8.26
2022-12-28T12:15:16.607Z,7.83
2022-12-28T12:16:26.358Z,8.17
2022-12-28T12:17:43.113Z,7.67
2022-12-28T12:18:47.822Z,7.34
2022-12-28T12:19:51.785Z,7.91
2022-12-28T12:20:56.650Z,7.92
2022-12-28T12:22:03.193Z,7.41
2022-12-28T12:23:24.389Z,7.58
2022-12-28T12:24:45.070Z,7.24
2022-12-28T12:25:53.455Z,7.58
2022-12-28T12:27:04.087Z,8.66
2022-12-28T12:28:12.451Z,7.85
2022-12-28T12:29:12.758Z,8.12
2022-12-28T12:30:15.829Z,8.00
2022-12-28T12:31:24.118Z,7.51
2022-12-28T12:32:27.482Z,7.75
2022-12-28T12:33:33.834Z,7.54
2022-12-28T12:34:41.622Z,7.35
2022-12-28T12:36:02.592Z,6.74
2022-12-28T12:37:18.974Z,7.29
2022-12-28T12:38:31.972Z,7.46
2022-12-28T12:39:42.334Z,7.95
2022-12-28T12:41:09.943Z,7.41
2022-12-28T12:42:26.383Z,8.07
2022-12-28T12:43:26.635Z,7.60
2022-12-28T12:44:39.879Z,7.80
2022-12-28T12:45:59.243Z,7.13
2022-12-28T12:47:13.439Z,7.27
2022-12-28T12:48:32.572Z,7.60
2022-12-28T12:49:47.164Z,7.44
2022-12-28T12:50:50.100Z,6.62
2022-12-28T12:52:13.644Z,6.97
2022-12-28T12:53:29.049Z,6.96
2022-12-28T12:54:50.433Z,9.10
2022-12-28T12:56:01.975Z,7.22
2022-12-28T12:57:11.401Z,7.81
2022-12-28T12:58:21.561Z,8.47
2022-12-28T12:59:33.731Z,6.63
2022-12-28T13:00:53.402Z,6.42
2022-12-28T13:02:22.961Z,6.09
2022-12-28T13:03:33.559Z,5.84
2022-12-28T13:04:34.792Z,5.03
2022-12-28T13:05:38.549Z,6.06
2022-12-28T13:06:38.962Z,5.38
2022-12-28T13:07:40.003Z,5.62
2022-12-28T13:08:45.405Z,5.57
2022-12-28T13:09:47.436Z,5.57
2022-12-28T13:10:48.684Z,5.26
2022-12-28T13:11:50.103Z,5.54
2022-12-28T13:12:53.149Z,6.59
2022-12-28T13:13:53.954Z,6.59
2022-12-28T13:14:59.982Z,5.99
2022-12-28T13:16:03.416Z,6.51
2022-12-28T13:17:09.274Z,6.59
2022-12-28T13:18:44.078Z,5.88
2022-12-28T13:19:38.729Z,5.07
2022-12-28T13:20:39.096Z,4.86
2022-12-28T13:21:44.014Z,5.09
2022-12-28T13:22:46.237Z,5.14
2022-12-28T13:23:47.162Z,4.96
2022-12-28T13:24:47.574Z,5.25
2022-12-28T13:25:49.761Z,5.44
2022-12-28T13:26:51.005Z,5.05
2022-12-28T13:27:51.490Z,5.40
2022-12-28T13:28:54.631Z,5.00
2022-12-28T13:29:55.021Z,5.60
2022-12-28T13:30:58.626Z,5.37
2022-12-28T13:31:58.977Z,5.42
2022-12-28T13:33:02.413Z,6.76
2022-12-28T13:34:25.806Z,5.96
2022-12-28T13:35:28.044Z,5.51
2022-12-28T13:36:28.492Z,7.26
2022-12-28T13:37:28.899Z,11.08
2022-12-28T13:38:29.443Z,7.51
2022-12-28T13:39:35.330Z,7.42
2022-12-28T13:40:48.202Z,7.12
2022-12-28T13:41:50.971Z,7.07
2022-12-28T13:43:00.339Z,7.00
2022-12-28T13:44:10.257Z,6.80
2022-12-28T13:45:15.172Z,6.97
2022-12-28T13:46:18.887Z,6.12
2022-12-28T13:47:49.380Z,6.98
2022-12-28T13:48:54.410Z,6.89
2022-12-28T13:49:54.775Z,7.33
2022-12-28T13:50:55.550Z,6.64
2022-12-28T13:51:56.384Z,6.20
2022-12-28T13:53:08.799Z,5.65
2022-12-28T13:54:10.413Z,6.18
2022-12-28T13:55:17.328Z,6.30
2022-12-28T13:56:20.172Z,6.48
2022-12-28T13:58:50.620Z,6.42
2022-12-28T13:59:54.057Z,7.26
2022-12-28T14:00:57.913Z,6.57
2022-12-28T14:01:58.432Z,6.48
2022-12-28T14:02:59.478Z,7.14
2022-12-28T14:04:33.726Z,7.53
2022-12-28T14:05:26.924Z,7.25
2022-12-28T14:06:27.914Z,7.19
2022-12-28T14:07:29.339Z,7.42
2022-12-28T14:08:35.071Z,6.86
2022-12-28T14:09:35.752Z,7.15
2022-12-28T14:10:36.642Z,7.08
2022-12-28T14:11:39.521Z,7.41